Aeroporto :
LOGIN :

Iscrizione | Disclaimer

   EN    FR    IT 

 










Sommario :    VFR   VFR Marginale   IFR   IFR Intensivo   IFR Molto Intensivo
Visibilità : 
Base nubi : 
>= 8 km
>= 3000ft
5 / 8 km
1000 / 3000 ft
1500m / 5 km
500 / 1000 ft
800 / 1500m
200 / 500 ft
< 800m
< 200 ft
Simboli :   Temporali  Nebbia  Neve Forte  Precipitazioni Forti  Vento > 20 kt
SIGMETs :   Varie  Temporali  Ghiacco  Turbolenza  Onda orograficha  Ceneri Vulcaniche






- Altitudine del aeroporto : 265 ft
- Codice IATA : BJY


LYBT - Batajnica Air Base

ULTIMO METAR :
  • 210300Z 20003KT 3000 BR NSC M02/M02Q1023 NOSIG

METARs OBSOLETI :
  • 210230Z 14002KT 3000 BR NSC M02/M02 Q1023 NOSIG
  • 210200Z 17003KT 5000 BR NSC M03/M03 Q1023 NOSIG
  • 210130Z 14002KT 6000 NSC M02/M02 Q1023 NOSIG
  • 210100Z 16003KT 6000 NSC M01/M01 Q1024 NOSIG
  • 210030Z 19003KT 6000 NSC M02/M02 Q1024 NOSIG

TAF TAF LYBT
Valido dal 21 a 00 ore il 22 a 00 ore UTC


202300Z 2100/2124 VRB02KT 6000 NSC TX09/2113Z TNM02/2105Z
BECMG 2101/2103 2000 BR
TEMPO 2105/2107 0400 FZFG
BECMG 2110/2113 26012KT 9999 NSW



MetMap, La meteo Aeronautica in un colpo d'occhio ! - Copyright ORBIFLY Dicembre 2007 - Disclaimer

ORBIFLY MET'MAP TEAM :

Programmazione e sviluppo : Alexandra Zaïnal
Concezione : Baudouin d'Aumeries
Aiuto per la programmazione : Marc-Olivier Méhu
Supporto tecnico e logistico : Manuel Goepfert
Aiuto per la traduzione : Arnaldo La Scala

Contatto : metmap@orbifly.com




FONTI E CREDITI :

   NOAA